createdAt,value
2022-10-04T00:00:41.703Z,99561.88
2022-10-04T00:03:12.924Z,99567.22
2022-10-04T00:05:41.653Z,99557.94
2022-10-04T00:08:26.133Z,99554.34
2022-10-04T00:11:33.795Z,99561.03
2022-10-04T00:14:05.472Z,99558.78
2022-10-04T00:16:38.919Z,99562.44
2022-10-04T00:19:16.317Z,99557.94
2022-10-04T00:21:53.621Z,99565.50
2022-10-04T00:24:23.643Z,99573.41
2022-10-04T00:26:51.375Z,99581.91
2022-10-04T00:29:33.972Z,99561.28
2022-10-04T00:32:11.272Z,99569.59
2022-10-04T00:34:50.056Z,99560.44
2022-10-04T00:37:19.971Z,99554.34
2022-10-04T00:39:58.079Z,99554.31
2022-10-04T00:42:31.961Z,99551.03
2022-10-04T00:45:39.670Z,99556.94
2022-10-04T00:48:31.588Z,99559.00
2022-10-04T00:51:16.625Z,99555.28
2022-10-04T00:53:51.023Z,99556.00
2022-10-04T00:56:48.925Z,99552.66
2022-10-04T00:59:34.357Z,99550.87
2022-10-04T01:02:22.807Z,99546.50
2022-10-04T01:04:56.882Z,99551.19
2022-10-04T01:07:33.861Z,99553.19
2022-10-04T01:10:08.325Z,99556.84
2022-10-04T01:12:46.238Z,99551.87
2022-10-04T01:15:16.252Z,99551.75
2022-10-04T01:18:09.507Z,99554.50
2022-10-04T01:20:40.611Z,99560.38
2022-10-04T01:23:10.412Z,99551.78
2022-10-04T01:25:50.279Z,99545.69
2022-10-04T01:28:18.202Z,99554.62
2022-10-04T01:30:46.492Z,99552.84
2022-10-04T01:33:14.381Z,99556.59
2022-10-04T01:35:42.260Z,99559.87
2022-10-04T01:38:10.735Z,99563.31
2022-10-04T01:40:46.203Z,99553.53
2022-10-04T01:43:19.461Z,99556.97
2022-10-04T01:45:50.893Z,99561.53
2022-10-04T01:48:24.393Z,99556.97
2022-10-04T01:51:13.273Z,99563.69
2022-10-04T01:53:46.444Z,99565.72
2022-10-04T01:56:23.741Z,99561.25
2022-10-04T01:59:05.133Z,99559.28
2022-10-04T02:01:38.765Z,99555.28
2022-10-04T02:04:22.503Z,99565.06
2022-10-04T02:06:55.302Z,99563.00
2022-10-04T02:09:26.922Z,99562.91
2022-10-04T02:11:55.161Z,99562.88
2022-10-04T02:14:26.451Z,99562.22
2022-10-04T02:16:54.602Z,99557.78
2022-10-04T02:19:27.624Z,99565.50
2022-10-04T02:21:56.322Z,99567.22
2022-10-04T02:24:24.172Z,99564.44
2022-10-04T02:26:52.753Z,99563.69
2022-10-04T02:29:21.284Z,99568.25
2022-10-04T02:32:09.661Z,99562.72
2022-10-04T02:34:38.991Z,99564.97
2022-10-04T02:37:07.891Z,99570.00
2022-10-04T02:39:40.633Z,99570.47
2022-10-04T02:42:25.881Z,99568.75
2022-10-04T02:45:00.633Z,99574.00
2022-10-04T02:47:34.342Z,99569.75
2022-10-04T02:50:21.694Z,99569.75
2022-10-04T02:52:55.813Z,99573.25
2022-10-04T02:55:28.382Z,99574.59
2022-10-04T02:57:58.686Z,99573.09
2022-10-04T03:00:31.924Z,99562.53
2022-10-04T03:03:18.016Z,99573.59
2022-10-04T03:05:53.292Z,99571.22
2022-10-04T03:08:21.743Z,99565.16
2022-10-04T03:10:50.962Z,99564.97
2022-10-04T03:13:20.383Z,99567.03
2022-10-04T03:15:50.418Z,99569.81
2022-10-04T03:18:18.472Z,99556.94
2022-10-04T03:20:46.501Z,99569.72
2022-10-04T03:23:16.554Z,99562.69
2022-10-04T03:25:59.911Z,99558.66
2022-10-04T03:28:29.139Z,99559.37
2022-10-04T03:30:58.297Z,99558.75
2022-10-04T03:33:27.810Z,99560.84
2022-10-04T03:35:58.474Z,99568.97
2022-10-04T03:38:27.577Z,99565.50
2022-10-04T03:40:58.551Z,99565.50
2022-10-04T03:43:32.242Z,99568.09
2022-10-04T03:46:01.655Z,99573.59
2022-10-04T03:48:35.882Z,99563.97
2022-10-04T03:51:05.823Z,99575.28
2022-10-04T03:53:37.852Z,99570.09
2022-10-04T03:56:33.860Z,99564.06
2022-10-04T03:59:06.532Z,99569.25
2022-10-04T04:01:41.677Z,99558.94
2022-10-04T04:04:37.214Z,99567.03
2022-10-04T04:07:28.573Z,99561.63
2022-10-04T04:10:00.015Z,99568.53
2022-10-04T04:12:34.384Z,99573.25
2022-10-04T04:15:03.081Z,99564.81
2022-10-04T04:17:37.047Z,99576.25
2022-10-04T04:20:13.801Z,99578.81
2022-10-04T04:22:44.483Z,99572.66
2022-10-04T04:25:15.266Z,99580.94
2022-10-04T04:27:44.471Z,99579.22
2022-10-04T04:30:17.184Z,99587.84
2022-10-04T04:32:54.454Z,99584.50
2022-10-04T04:35:30.893Z,99583.31
2022-10-04T04:38:21.911Z,99587.97
2022-10-04T04:40:50.871Z,99595.81
2022-10-04T04:43:22.345Z,99598.88
2022-10-04T04:46:03.206Z,99604.97
2022-10-04T04:48:38.834Z,99598.59
2022-10-04T04:51:07.850Z,99599.50
2022-10-04T04:53:36.423Z,99595.16
2022-10-04T04:56:10.446Z,99603.97
2022-10-04T04:58:43.674Z,99599.78
2022-10-04T05:01:14.623Z,99612.03
2022-10-04T05:03:42.845Z,99609.00
2022-10-04T05:06:27.512Z,99606.56
2022-10-04T05:08:55.564Z,99621.25
2022-10-04T05:11:30.304Z,99624.22
2022-10-04T05:14:03.367Z,99611.38
2022-10-04T05:16:41.698Z,99619.63
2022-10-04T05:19:23.247Z,99619.63
2022-10-04T05:21:53.534Z,99631.06
2022-10-04T05:24:31.063Z,99628.88
2022-10-04T05:27:17.663Z,99627.69
2022-10-04T05:30:20.303Z,99630.84
2022-10-04T05:33:04.228Z,99621.06
2022-10-04T05:35:43.247Z,99626.97
2022-10-04T05:38:35.499Z,99637.69
2022-10-04T05:41:18.045Z,99639.25
2022-10-04T05:43:47.638Z,99625.47
2022-10-04T05:46:19.393Z,99635.41
2022-10-04T05:49:10.460Z,99636.97
2022-10-04T05:52:13.839Z,99645.16
2022-10-04T05:54:41.831Z,99638.84
2022-10-04T05:58:01.352Z,99642.37
2022-10-04T06:00:47.035Z,99650.78
2022-10-04T06:03:26.989Z,99648.00
2022-10-04T06:05:55.471Z,99653.81
2022-10-04T06:08:32.011Z,99662.34
2022-10-04T06:11:24.668Z,99675.16
2022-10-04T06:14:24.156Z,99672.84
2022-10-04T06:16:57.949Z,99667.19
2022-10-04T06:19:54.967Z,99677.31
2022-10-04T06:22:28.641Z,99682.84
2022-10-04T06:25:06.052Z,99676.88
2022-10-04T06:28:04.645Z,99676.41
2022-10-04T06:30:58.757Z,99684.00
2022-10-04T06:33:54.435Z,99684.62
2022-10-04T06:36:22.658Z,99690.13
2022-10-04T06:39:05.906Z,99683.03
2022-10-04T06:42:25.566Z,99684.38
2022-10-04T06:45:05.558Z,99692.22
2022-10-04T06:47:45.435Z,99695.66
2022-10-04T06:50:28.715Z,99695.97
2022-10-04T06:53:14.436Z,99704.56
2022-10-04T06:56:07.468Z,99700.47
2022-10-04T06:58:48.317Z,99709.91
2022-10-04T07:01:29.100Z,99707.53
2022-10-04T07:04:19.319Z,99699.91
2022-10-04T07:07:25.203Z,99701.19
2022-10-04T07:10:09.830Z,99705.69
2022-10-04T07:12:41.176Z,99707.81
2022-10-04T07:15:23.997Z,99716.38
2022-10-04T07:17:53.742Z,99712.37
2022-10-04T07:20:32.418Z,99723.94
2022-10-04T07:23:06.125Z,99730.09
2022-10-04T07:25:45.217Z,99731.25
2022-10-04T07:28:37.175Z,99725.06
2022-10-04T07:31:11.986Z,99728.06
2022-10-04T07:34:04.319Z,99718.00
2022-10-04T07:36:49.260Z,99719.37
2022-10-04T07:39:44.528Z,99722.66
2022-10-04T07:42:15.608Z,99720.41
2022-10-04T07:44:45.608Z,99722.03
2022-10-04T07:47:20.551Z,99709.19
2022-10-04T07:49:50.994Z,99707.84
2022-10-04T07:52:48.395Z,99704.56
2022-10-04T07:55:16.278Z,99715.25
2022-10-04T07:57:56.318Z,99724.22
2022-10-04T08:00:29.496Z,99736.91
2022-10-04T08:03:27.987Z,99728.91
2022-10-04T08:06:21.675Z,99737.81
2022-10-04T08:08:59.074Z,99734.41
2022-10-04T08:12:05.629Z,99735.94
2022-10-04T08:14:53.315Z,99732.91
2022-10-04T08:17:32.082Z,99730.34
2022-10-04T08:20:25.607Z,99751.44
2022-10-04T08:22:56.600Z,99741.94
2022-10-04T08:25:33.599Z,99761.44
2022-10-04T08:28:48.773Z,99762.91
2022-10-04T08:31:39.511Z,99768.53
2022-10-04T08:34:45.158Z,99769.72
2022-10-04T08:37:17.683Z,99766.53
2022-10-04T08:40:12.656Z,99756.69
2022-10-04T08:42:44.299Z,99755.03
2022-10-04T08:45:44.129Z,99754.03
2022-10-04T08:48:24.915Z,99761.06
2022-10-04T08:51:24.915Z,99763.28
2022-10-04T08:54:11.725Z,99761.03
2022-10-04T08:56:58.793Z,99761.44
2022-10-04T09:00:06.102Z,99765.59
2022-10-04T09:02:46.942Z,99758.19
2022-10-04T09:05:27.262Z,99766.28
2022-10-04T09:07:55.056Z,99772.50
2022-10-04T09:10:42.627Z,99775.13
2022-10-04T09:13:31.087Z,99772.81
2022-10-04T09:16:19.573Z,99770.88
2022-10-04T09:18:51.797Z,99765.13
2022-10-04T09:21:47.597Z,99774.78
2022-10-04T09:24:52.629Z,99782.25
2022-10-04T09:27:54.684Z,99780.13
2022-10-04T09:30:31.323Z,99769.56
2022-10-04T09:33:11.616Z,99762.66
2022-10-04T09:35:53.159Z,99760.59
2022-10-04T09:38:40.962Z,99772.31
2022-10-04T09:41:35.101Z,99776.81
2022-10-04T09:44:34.465Z,99772.37
2022-10-04T09:47:38.455Z,99774.09
2022-10-04T09:50:26.831Z,99761.50
2022-10-04T09:53:20.608Z,99775.84
2022-10-04T09:56:01.230Z,99774.19
2022-10-04T09:58:39.278Z,99774.78
2022-10-04T10:01:09.235Z,99787.84
2022-10-04T10:03:53.170Z,99787.34
2022-10-04T10:06:41.586Z,99784.41
2022-10-04T10:09:21.479Z,99790.91
2022-10-04T10:12:16.677Z,99785.91
2022-10-04T10:15:07.901Z,99786.88
2022-10-04T10:17:51.789Z,99792.91
2022-10-04T10:20:41.296Z,99790.97
2022-10-04T10:23:27.662Z,99787.63
2022-10-04T10:26:08.170Z,99796.41
2022-10-04T10:28:58.137Z,99800.16
2022-10-04T10:31:57.019Z,99795.41
2022-10-04T10:35:02.860Z,99807.94
2022-10-04T10:37:49.442Z,99803.37
2022-10-04T10:40:49.787Z,99813.25
2022-10-04T10:43:41.815Z,99819.47
2022-10-04T10:46:38.234Z,99797.63
2022-10-04T10:49:37.848Z,99801.16
2022-10-04T10:52:37.299Z,99802.34
2022-10-04T10:55:41.698Z,99801.03
2022-10-04T10:58:44.643Z,99796.41
2022-10-04T11:01:21.390Z,99790.47
2022-10-04T11:04:21.085Z,99798.28
2022-10-04T11:07:04.486Z,99801.34
2022-10-04T11:09:51.460Z,99795.22
2022-10-04T11:12:51.715Z,99802.81
2022-10-04T11:15:41.218Z,99812.28
2022-10-04T11:18:34.798Z,99806.03
2022-10-04T11:21:35.341Z,99806.16
2022-10-04T11:24:44.802Z,99800.28
2022-10-04T11:27:30.118Z,99803.31
2022-10-04T11:30:10.737Z,99802.87
2022-10-04T11:32:56.976Z,99802.87
2022-10-04T11:35:54.910Z,99799.22
2022-10-04T11:38:49.089Z,99794.50
2022-10-04T11:41:34.719Z,99792.78
2022-10-04T11:44:44.265Z,99794.94
2022-10-04T11:48:00.101Z,99801.56
2022-10-04T11:50:45.415Z,99786.25
2022-10-04T11:53:29.967Z,99795.97
2022-10-04T11:56:19.567Z,99799.16
2022-10-04T11:58:58.940Z,99793.09
2022-10-04T12:02:04.307Z,99793.84
2022-10-04T12:04:53.949Z,99802.31
2022-10-04T12:07:54.737Z,99805.56
2022-10-04T12:10:35.975Z,99803.19
2022-10-04T12:13:06.930Z,99805.91
2022-10-04T12:15:56.958Z,99814.16
2022-10-04T12:18:46.437Z,99816.66
2022-10-04T12:21:22.295Z,99818.44
2022-10-04T12:24:17.657Z,99821.47
2022-10-04T12:27:04.415Z,99823.19
2022-10-04T12:30:14.918Z,99825.63
2022-10-04T12:33:05.016Z,99832.78
2022-10-04T12:36:08.806Z,99825.34
2022-10-04T12:38:42.748Z,99827.78
2022-10-04T12:41:29.297Z,99825.19
2022-10-04T12:44:03.410Z,99823.44
2022-10-04T12:46:40.693Z,99822.47
2022-10-04T12:49:20.094Z,99819.72
2022-10-04T12:52:20.570Z,99827.47
2022-10-04T12:55:18.531Z,99824.03
2022-10-04T12:57:54.088Z,99821.03
2022-10-04T13:00:23.706Z,99819.00
2022-10-04T13:03:04.485Z,99819.75
2022-10-04T13:05:50.178Z,99809.41
2022-10-04T13:08:32.168Z,99814.16
2022-10-04T13:11:09.595Z,99815.69
2022-10-04T13:14:15.145Z,99820.63
2022-10-04T13:19:55.328Z,99811.53
2022-10-04T13:22:56.058Z,99806.25
2022-10-04T13:25:47.749Z,99811.25
2022-10-04T13:29:07.025Z,99801.28
2022-10-04T13:31:40.626Z,99804.72
2022-10-04T13:34:55.788Z,99808.19
2022-10-04T13:37:32.467Z,99817.97
2022-10-04T13:40:21.615Z,99814.78
2022-10-04T13:43:17.191Z,99825.87
2022-10-04T13:45:51.448Z,99820.25
2022-10-04T13:48:31.319Z,99823.97
2022-10-04T13:51:36.959Z,99823.28
2022-10-04T13:54:34.825Z,99828.34
2022-10-04T13:57:24.346Z,99829.06
2022-10-04T14:00:10.974Z,99820.94
2022-10-04T14:02:52.523Z,99830.75
2022-10-04T14:05:59.956Z,99830.97
2022-10-04T14:08:48.647Z,99834.47
2022-10-04T14:11:43.697Z,99835.72
2022-10-04T14:14:37.397Z,99840.31
2022-10-04T14:17:23.416Z,99834.75
2022-10-04T14:20:25.658Z,99846.97
2022-10-04T14:23:20.608Z,99841.75
2022-10-04T14:26:26.601Z,99835.16
2022-10-04T14:29:21.396Z,99842.13
2022-10-04T14:32:33.835Z,99835.34
2022-10-04T14:35:32.940Z,99838.00
2022-10-04T14:38:32.814Z,99834.41
2022-10-04T14:41:10.916Z,99833.37
2022-10-04T14:44:12.986Z,99840.09
2022-10-04T14:47:18.297Z,99840.09
2022-10-04T14:49:51.326Z,99840.91
2022-10-04T14:52:57.126Z,99846.31
2022-10-04T14:56:04.497Z,99850.03
2022-10-04T14:58:41.608Z,99853.09
2022-10-04T15:01:28.552Z,99856.72
2022-10-04T15:04:00.770Z,99857.69
2022-10-04T15:06:59.555Z,99860.97
2022-10-04T15:09:47.078Z,99856.59
2022-10-04T15:13:09.332Z,99864.25
2022-10-04T15:15:45.004Z,99861.63
2022-10-04T15:18:41.431Z,99864.03
2022-10-04T15:21:33.938Z,99859.97
2022-10-04T15:24:17.398Z,99865.56
2022-10-04T15:26:57.199Z,99859.88
2022-10-04T15:29:51.728Z,99869.78
2022-10-04T15:32:48.014Z,99868.19
2022-10-04T15:35:42.406Z,99873.75
2022-10-04T15:39:01.875Z,99879.81
2022-10-04T15:42:25.339Z,99881.63
2022-10-04T15:45:26.670Z,99878.81
2022-10-04T15:48:19.250Z,99886.03
2022-10-04T15:51:18.447Z,99893.13
2022-10-04T15:54:05.632Z,99903.88
2022-10-04T15:56:35.497Z,99900.44
2022-10-04T15:59:25.215Z,99903.03
2022-10-04T16:02:05.687Z,99908.66
2022-10-04T16:04:55.768Z,99902.34
2022-10-04T16:07:54.459Z,99909.13
2022-10-04T16:10:29.031Z,99906.75
2022-10-04T16:13:24.726Z,99908.44
2022-10-04T16:16:26.226Z,99925.56
2022-10-04T16:19:26.348Z,99925.66
2022-10-04T16:22:08.356Z,99929.75
2022-10-04T16:24:50.837Z,99926.25
2022-10-04T16:27:38.189Z,99928.41
2022-10-04T16:30:26.125Z,99933.91
2022-10-04T16:32:56.948Z,99928.75
2022-10-04T16:35:39.158Z,99930.06
2022-10-04T16:38:13.138Z,99928.62
2022-10-04T16:40:53.225Z,99929.81
2022-10-04T16:43:23.887Z,99927.19
2022-10-04T16:46:23.322Z,99939.63
2022-10-04T16:48:56.617Z,99941.03
2022-10-04T16:51:47.506Z,99938.38
2022-10-04T16:55:00.397Z,99942.25
2022-10-04T16:57:28.596Z,99955.03
2022-10-04T17:00:01.147Z,99955.69
2022-10-04T17:02:44.125Z,99961.09
2022-10-04T17:05:44.540Z,99959.38
2022-10-04T17:08:15.586Z,99965.22
2022-10-04T17:10:52.367Z,99962.53
2022-10-04T17:13:23.555Z,99963.28
2022-10-04T17:15:57.826Z,99973.09
2022-10-04T17:18:36.067Z,99966.22
2022-10-04T17:21:33.625Z,99972.31
2022-10-04T17:24:09.184Z,99976.91
2022-10-04T17:26:52.572Z,99982.62
2022-10-04T17:29:26.765Z,99984.84
2022-10-04T17:31:59.478Z,99984.66
2022-10-04T17:34:34.327Z,99988.50
2022-10-04T17:37:03.583Z,99996.00
2022-10-04T17:39:49.556Z,99993.53
2022-10-04T17:42:29.976Z,99996.62
2022-10-04T17:45:25.570Z,100003.56
2022-10-04T17:48:27.958Z,100003.31
2022-10-04T17:51:19.585Z,100005.75
2022-10-04T17:54:12.977Z,100014.47
2022-10-04T17:56:48.361Z,100006.47
2022-10-04T17:59:21.066Z,100015.03
2022-10-04T18:01:55.141Z,100007.00
2022-10-04T18:04:30.514Z,100015.44
2022-10-04T18:07:25.317Z,100016.28
2022-10-04T18:09:56.712Z,100007.84
2022-10-04T18:12:42.516Z,100016.44
2022-10-04T18:15:26.866Z,100016.03
2022-10-04T18:18:28.136Z,100015.28
2022-10-04T18:21:04.798Z,100021.59
2022-10-04T18:23:35.402Z,100026.81
2022-10-04T18:26:10.980Z,100022.69
2022-10-04T18:28:40.509Z,100033.97
2022-10-04T18:31:17.922Z,100017.47
2022-10-04T18:33:50.522Z,100021.75
2022-10-04T18:36:25.162Z,100027.94
2022-10-04T18:39:11.719Z,100034.84
2022-10-04T18:41:55.078Z,100034.84
2022-10-04T18:44:44.356Z,100037.41
2022-10-04T18:47:38.282Z,100038.31
2022-10-04T18:50:21.495Z,100053.84
2022-10-04T18:53:16.530Z,100054.81
2022-10-04T18:55:58.716Z,100053.97
2022-10-04T18:59:04.347Z,100051.34
2022-10-04T19:02:00.106Z,100053.94
2022-10-04T19:04:45.868Z,100061.75
2022-10-04T19:07:16.645Z,100065.91
2022-10-04T19:09:59.915Z,100073.72
2022-10-04T19:12:36.258Z,100069.28
2022-10-04T19:15:23.148Z,100069.44
2022-10-04T19:18:12.752Z,100073.91
2022-10-04T19:20:47.587Z,100085.22
2022-10-04T19:23:31.281Z,100086.09
2022-10-04T19:26:32.932Z,100089.56
2022-10-04T19:29:10.248Z,100086.94
2022-10-04T19:31:49.596Z,100099.03
2022-10-04T19:34:47.469Z,100092.97
2022-10-04T19:37:39.319Z,100088.34
2022-10-04T19:40:17.154Z,100094.44
2022-10-04T19:43:07.806Z,100098.75
2022-10-04T19:45:50.995Z,100107.50
2022-10-04T19:48:24.669Z,100101.34
2022-10-04T19:51:09.813Z,100107.66
2022-10-04T19:53:49.836Z,100111.00
2022-10-04T19:56:23.976Z,100107.63
2022-10-04T19:59:19.138Z,100109.47
2022-10-04T20:01:47.238Z,100116.25
2022-10-04T20:04:35.488Z,100117.00
2022-10-04T20:07:05.925Z,100118.59
2022-10-04T20:09:37.022Z,100113.62
2022-10-04T20:12:05.715Z,100121.50
2022-10-04T20:14:33.505Z,100123.13
2022-10-04T20:17:01.621Z,100124.84
2022-10-04T20:19:29.423Z,100127.81
2022-10-04T20:22:26.846Z,100120.97
2022-10-04T20:24:56.598Z,100124.63
2022-10-04T20:27:32.057Z,100128.19
2022-10-04T20:30:06.019Z,100129.97
2022-10-04T20:32:34.490Z,100133.53
2022-10-04T20:35:10.724Z,100141.19
2022-10-04T20:37:44.678Z,100136.00
2022-10-04T20:40:24.946Z,100139.13
2022-10-04T20:43:13.770Z,100141.91
2022-10-04T20:45:46.413Z,100142.16
2022-10-04T20:48:20.119Z,100141.38
2022-10-04T20:50:50.056Z,100145.53
2022-10-04T20:53:23.146Z,100145.69
2022-10-04T20:55:54.185Z,100148.19
2022-10-04T20:58:33.002Z,100155.87
2022-10-04T21:01:25.655Z,100157.81
2022-10-04T21:03:53.635Z,100148.75
2022-10-04T21:06:21.916Z,100151.44
2022-10-04T21:08:49.826Z,100156.00
2022-10-04T21:11:20.809Z,100150.00
2022-10-04T21:13:54.676Z,100161.00
2022-10-04T21:16:40.459Z,100155.87
2022-10-04T21:19:31.326Z,100159.34
2022-10-04T21:22:00.556Z,100159.81
2022-10-04T21:24:43.082Z,100160.69
2022-10-04T21:27:12.788Z,100161.00
2022-10-04T21:29:41.175Z,100162.87
2022-10-04T21:32:09.027Z,100169.78
2022-10-04T21:34:53.823Z,100169.53
2022-10-04T21:37:22.749Z,100177.84
2022-10-04T21:39:50.637Z,100188.78
2022-10-04T21:42:18.655Z,100180.78
2022-10-04T21:44:46.725Z,100181.91
2022-10-04T21:47:14.537Z,100187.06
2022-10-04T21:49:42.366Z,100183.44
2022-10-04T21:52:10.501Z,100176.41
2022-10-04T21:54:38.389Z,100172.59
2022-10-04T21:57:06.268Z,100181.00
2022-10-04T21:59:34.377Z,100184.00
2022-10-04T22:02:02.313Z,100189.53
2022-10-04T22:04:30.457Z,100193.66
2022-10-04T22:06:58.316Z,100186.19
2022-10-04T22:09:26.136Z,100188.78
2022-10-04T22:11:54.206Z,100187.91
2022-10-04T22:14:21.984Z,100190.03
2022-10-04T22:16:50.293Z,100189.28
2022-10-04T22:19:19.033Z,100196.53
2022-10-04T22:21:46.806Z,100190.50
2022-10-04T22:24:18.225Z,100197.50
2022-10-04T22:26:46.955Z,100200.13
2022-10-04T22:29:16.437Z,100202.56
2022-10-04T22:31:50.837Z,100197.72
2022-10-04T22:34:23.110Z,100196.31
2022-10-04T22:36:53.186Z,100196.31
2022-10-04T22:39:21.746Z,100199.69
2022-10-04T22:41:54.398Z,100201.62
2022-10-04T22:44:29.347Z,100201.62
2022-10-04T22:46:59.437Z,100209.13
2022-10-04T22:49:32.996Z,100206.81
2022-10-04T22:52:03.055Z,100211.22
2022-10-04T22:54:33.205Z,100205.94
2022-10-04T22:57:01.015Z,100196.34
2022-10-04T22:59:43.876Z,100199.03
2022-10-04T23:02:28.550Z,100209.31
2022-10-04T23:05:00.371Z,100211.66
2022-10-04T23:07:28.716Z,100209.91
2022-10-04T23:09:56.564Z,100211.34
2022-10-04T23:12:24.346Z,100215.72
2022-10-04T23:14:52.475Z,100209.09
2022-10-04T23:17:30.019Z,100216.00
2022-10-04T23:20:02.106Z,100218.50
2022-10-04T23:22:30.831Z,100221.88
2022-10-04T23:24:59.397Z,100217.63
2022-10-04T23:27:27.187Z,100218.31
2022-10-04T23:30:21.369Z,100217.22
2022-10-04T23:32:52.665Z,100230.06
2022-10-04T23:35:23.756Z,100234.84
2022-10-04T23:37:51.945Z,100235.75
2022-10-04T23:40:22.024Z,100234.16
2022-10-04T23:42:51.505Z,100232.34
2022-10-04T23:45:29.515Z,100234.53
2022-10-04T23:47:59.406Z,100231.19
2022-10-04T23:50:34.156Z,100238.38
2022-10-04T23:53:04.926Z,100237.66
2022-10-04T23:55:35.786Z,100233.19
2022-10-04T23:58:17.939Z,100238.72
